Time;durP1;ratioP1;P1;durP2;ratioP2;P2;SDS_P1;SDS_P2;PMS_P1;PMS_P2;Temp;Humidity;BMP_temperature;BMP_pressure;BME280_temperature;BME280_humidity;BME280_pressure;Samples;Min_cycle;Max_cycle;Signal;HPM_P1;HPM_P2
2023/03/09 00:11:08;;;;;;;8.90;1.77;;;12.80;99.90;;;;;;7420100;19;20364;-80
2023/03/09 00:13:53;;;;;;;10.23;2.00;;;12.90;99.90;;;;;;7421516;19;20353;-81
2023/03/09 00:20:16;;;;;;;6.18;1.80;;;12.90;99.90;;;;;;7371061;19;20019;-81
2023/03/09 00:23:21;;;;;;;9.60;1.65;;;12.90;99.90;;;;;;7449790;19;20009;-80
2023/03/09 00:26:34;;;;;;;;;;;;;;;;;;;;;
2023/03/09 00:29:24;;;;;;;4.10;1.58;;;12.70;99.90;;;;;;7418333;19;20006;-80
2023/03/09 00:31:56;;;;;;;8.90;1.40;;;12.70;99.90;;;;;;7422657;19;20027;-79
2023/03/09 00:37:23;;;;;;;4.80;1.65;;;12.70;99.90;;;;;;7419270;19;20066;-80
2023/03/09 00:40:10;;;;;;;;;;;;;;;;;;;;;
2023/03/09 00:42:59;;;;;;;8.07;1.50;;;12.40;99.90;;;;;;7454554;19;19999;-81
2023/03/09 00:46:04;;;;;;;6.80;1.70;;;12.60;99.90;;;;;;7430764;19;20077;-80
2023/03/09 00:52:09;;;;;;;9.38;1.92;;;12.30;99.90;;;;;;7418575;19;20010;-80
2023/03/09 00:54:39;;;;;;;7.22;1.70;;;12.30;99.90;;;;;;7416018;19;20343;-80
2023/03/09 00:57:22;;;;;;;15.30;2.05;;;12.40;99.90;;;;;;7420172;19;20006;-81
2023/03/09 01:00:00;;;;;;;11.32;2.47;;;12.40;99.90;;;;;;7438094;19;19999;-80
2023/03/09 01:02:32;;;;;;;5.45;1.45;;;12.30;99.90;;;;;;7417616;19;20230;-81
2023/03/09 01:05:21;;;;;;;4.65;1.42;;;12.40;99.90;;;;;;7418020;19;20078;-81
2023/03/09 01:07:52;;;;;;;11.50;2.00;;;12.30;99.90;;;;;;7423025;19;20015;-81
2023/03/09 01:10:32;;;;;;;14.55;2.15;;;12.40;99.90;;;;;;7409213;19;20007;-81
2023/03/09 01:13:10;;;;;;;10.70;2.30;;;12.30;99.90;;;;;;7399819;19;20002;-80
2023/03/09 01:15:50;;;;;;;15.15;1.83;;;12.20;99.90;;;;;;7397921;19;20003;-80
2023/03/09 01:21:14;;;;;;;8.95;1.70;;;12.30;99.90;;;;;;7389743;19;20074;-80
2023/03/09 01:23:43;;;;;;;21.80;2.08;;;12.40;99.90;;;;;;7412180;19;20003;-80
2023/03/09 01:26:24;;;;;;;10.77;1.80;;;12.40;99.90;;;;;;7394645;19;20015;-80
2023/03/09 01:29:01;;;;;;;7.63;1.50;;;12.10;99.90;;;;;;7394181;19;20007;-80
2023/03/09 01:31:35;;;;;;;13.02;2.55;;;12.10;99.90;;;;;;7396755;19;20013;-80
2023/03/09 01:34:12;;;;;;;12.48;1.80;;;12.30;99.90;;;;;;7393813;19;20051;-80
2023/03/09 01:36:44;;;;;;;14.07;2.53;;;12.20;99.90;;;;;;7392658;19;20003;-80
2023/03/09 01:39:21;;;;;;;19.60;2.05;;;12.30;99.90;;;;;;7391887;19;20341;-80
2023/03/09 01:41:53;;;;;;;13.80;1.83;;;12.20;99.90;;;;;;7414056;19;20013;-79
2023/03/09 01:44:22;;;;;;;11.82;2.10;;;12.40;99.90;;;;;;7391560;19;20399;-80
2023/03/09 01:46:58;;;;;;;12.20;2.25;;;12.30;99.90;;;;;;7389140;19;20246;-79
2023/03/09 01:49:33;;;;;;;8.50;2.10;;;12.30;99.90;;;;;;7392003;19;20007;-81
2023/03/09 01:52:12;;;;;;;12.68;2.33;;;12.10;99.90;;;;;;7392437;19;20055;-81
2023/03/09 01:54:58;;;;;;;15.93;2.72;;;11.80;99.90;;;;;;7393330;19;20007;-81
2023/03/09 01:57:33;;;;;;;10.35;1.83;;;12.10;99.90;;;;;;7390639;19;20610;-81
2023/03/09 02:00:20;;;;;;;19.27;2.35;;;12.00;99.90;;;;;;7408816;19;20015;-81
2023/03/09 02:02:55;;;;;;;11.85;2.38;;;12.00;99.90;;;;;;7388526;19;20034;-80
2023/03/09 02:05:41;;;;;;;16.50;2.40;;;12.20;99.90;;;;;;7389444;19;19999;-80
2023/03/09 02:08:20;;;;;;;12.43;1.80;;;12.30;99.90;;;;;;7387560;19;20021;-80
2023/03/09 02:11:03;;;;;;;21.85;2.33;;;12.40;99.90;;;;;;7387534;19;20010;-79
2023/03/09 02:13:51;;;;;;;17.77;2.60;;;12.50;99.90;;;;;;7388475;19;20360;-80
2023/03/09 02:16:25;;;;;;;9.13;2.05;;;12.30;99.90;;;;;;7394243;19;20014;-80
2023/03/09 02:19:01;;;;;;;16.25;2.20;;;12.40;99.90;;;;;;7387535;19;20007;-80
2023/03/09 02:21:44;;;;;;;18.00;2.50;;;12.30;99.90;;;;;;7385839;19;20018;-80
2023/03/09 02:24:26;;;;;;;11.85;2.22;;;12.30;99.90;;;;;;7388062;19;20013;-80
2023/03/09 02:27:09;;;;;;;14.15;2.53;;;12.30;99.90;;;;;;7408514;19;20237;-81
2023/03/09 02:29:41;;;;;;;14.05;2.15;;;12.40;99.90;;;;;;7389413;19;20010;-80
2023/03/09 02:32:25;;;;;;;17.60;2.97;;;12.50;99.90;;;;;;7391161;19;20026;-80
2023/03/09 02:34:59;;;;;;;17.33;2.55;;;12.30;99.90;;;;;;7389698;19;20330;-80
2023/03/09 02:37:35;;;;;;;15.43;2.72;;;12.40;99.90;;;;;;7390574;19;20002;-80
2023/03/09 02:40:23;;;;;;;16.17;2.65;;;12.60;99.90;;;;;;7392293;19;20003;-80
2023/03/09 02:43:00;;;;;;;17.77;2.70;;;12.40;99.90;;;;;;7389118;19;20380;-81
2023/03/09 02:45:37;;;;;;;16.30;2.35;;;12.40;99.90;;;;;;7397189;19;20018;-79
2023/03/09 02:48:13;;;;;;;29.70;3.20;;;12.40;99.90;;;;;;7418551;19;20098;-80
2023/03/09 02:50:43;;;;;;;23.83;3.20;;;12.30;99.90;;;;;;7396364;19;20002;-80
2023/03/09 02:53:14;;;;;;;17.70;2.63;;;12.40;99.90;;;;;;7395773;19;20096;-80
2023/03/09 02:55:45;;;;;;;28.50;3.17;;;12.50;99.90;;;;;;7387738;19;20029;-80
2023/03/09 02:58:20;;;;;;;22.17;2.80;;;12.10;99.90;;;;;;7387332;19;20017;-81
2023/03/09 03:00:53;;;;;;;22.75;2.72;;;12.20;99.90;;;;;;7390111;19;20002;-80
2023/03/09 03:03:30;;;;;;;25.00;3.05;;;12.30;99.90;;;;;;7389107;19;20007;-80
2023/03/09 03:06:00;;;;;;;26.33;3.28;;;12.50;99.90;;;;;;7408319;19;20007;-80
2023/03/09 03:08:35;;;;;;;27.10;3.15;;;12.60;99.90;;;;;;7386298;19;20022;-80
2023/03/09 03:11:15;;;;;;;32.00;3.25;;;12.70;99.90;;;;;;7386129;19;20013;-81
2023/03/09 03:13:54;;;;;;;32.70;3.97;;;12.70;99.90;;;;;;7386157;19;20006;-81
2023/03/09 03:16:30;;;;;;;23.10;2.72;;;12.50;99.90;;;;;;7386457;19;20006;-81
2023/03/09 03:19:03;;;;;;;23.85;3.50;;;12.60;99.90;;;;;;7385936;19;20700;-80
2023/03/09 03:22:06;;;;;;;;;;;;;;;;;;;;;
2023/03/09 03:24:55;;;;;;;24.35;3.42;;;12.70;99.90;;;;;;7390791;19;20074;-80
2023/03/09 03:27:29;;;;;;;24.73;2.65;;;12.80;99.90;;;;;;7390392;19;20042;-80
2023/03/09 03:33:19;;;;;;;25.92;3.20;;;12.50;99.90;;;;;;7385390;19;20088;-80
2023/03/09 03:36:25;;;;;;;30.67;3.13;;;12.80;99.90;;;;;;7394216;19;20015;-81
2023/03/09 03:39:13;;;;;;;30.30;3.53;;;12.60;99.90;;;;;;7394108;19;20044;-80
2023/03/09 03:44:48;;;;;;;28.20;3.15;;;12.60;99.90;;;;;;7390382;19;20010;-81
2023/03/09 03:47:30;;;;;;;;;;;;;;;;;;;;;
2023/03/09 03:50:08;;;;;;;31.15;2.97;;;12.90;99.90;;;;;;7389379;19;20010;-81
2023/03/09 03:52:47;;;;;;;26.70;3.28;;;13.00;99.90;;;;;;7387473;19;20039;-81
2023/03/09 03:55:26;;;;;;;27.38;3.13;;;12.90;99.90;;;;;;7385944;19;20006;-81
2023/03/09 03:57:58;;;;;;;21.98;2.90;;;13.00;99.90;;;;;;7387223;19;20027;-81
2023/03/09 04:00:29;;;;;;;30.95;3.28;;;13.10;99.90;;;;;;7385772;19;20143;-81
2023/03/09 04:03:02;;;;;;;26.25;3.30;;;13.10;99.90;;;;;;7407666;19;20022;-81
2023/03/09 04:05:42;;;;;;;25.73;3.47;;;13.10;99.90;;;;;;7389958;19;20007;-81
2023/03/09 04:08:25;;;;;;;31.25;4.35;;;13.20;99.80;;;;;;7390200;19;20006;-81
2023/03/09 04:11:14;;;;;;;29.48;3.30;;;13.00;99.70;;;;;;7385723;19;20075;-81
2023/03/09 04:14:06;;;;;;;35.92;3.65;;;13.10;99.60;;;;;;7390678;19;20007;-81
2023/03/09 04:16:39;;;;;;;24.02;3.28;;;13.10;99.70;;;;;;7384032;19;20026;-81
2023/03/09 04:19:11;;;;;;;21.45;3.25;;;13.10;99.80;;;;;;7383805;19;20007;-81
2023/03/09 04:22:02;;;;;;;43.72;4.03;;;12.90;99.90;;;;;;7386302;19;20035;-81
2023/03/09 04:24:34;;;;;;;28.38;4.38;;;12.90;99.90;;;;;;7387559;19;20005;-81
2023/03/09 04:27:46;;;;;;;29.15;3.30;;;13.00;99.90;;;;;;7406611;19;20007;-81
2023/03/09 04:30:30;;;;;;;41.60;3.97;;;12.90;99.90;;;;;;7286923;19;2004266;-81
2023/03/09 04:33:15;;;;;;;26.48;3.88;;;13.10;99.90;;;;;;7409807;19;20020;-81
2023/03/09 04:36:12;;;;;;;;;;;;;;;;;;;;;
2023/03/09 04:41:38;;;;;;;26.00;3.50;;;12.80;99.90;;;;;;7382025;19;20011;-81
2023/03/09 04:44:17;;;;;;;32.42;3.85;;;12.60;99.90;;;;;;7384105;19;20011;-81
2023/03/09 04:47:22;;;;;;;;;;;;;;;;;;;;;
2023/03/09 04:50:06;;;;;;;34.60;3.85;;;12.60;99.90;;;;;;7392289;19;20007;-81
2023/03/09 04:52:42;;;;;;;27.88;3.05;;;12.90;99.90;;;;;;7394730;19;20006;-81
2023/03/09 04:55:23;;;;;;;30.25;4.03;;;12.70;99.90;;;;;;7394179;19;20010;-80
2023/03/09 04:57:54;;;;;;;29.83;3.72;;;12.50;99.90;;;;;;7390739;19;20009;-80
2023/03/09 05:00:32;;;;;;;;;;;12.70;99.90;;;;;;7390916;19;20083;-80
2023/03/09 05:03:10;;;;;;;42.13;11.88;;;12.90;99.90;;;;;;7411733;19;20252;-81
2023/03/09 05:05:42;;;;;;;591.50;26.85;;;12.90;99.90;;;;;;7391274;19;20393;-81
2023/03/09 05:08:20;;;;;;;;;;;12.90;99.90;;;;;;7390212;19;20006;-80
2023/03/09 05:14:01;;;;;;;27.00;3.58;;;12.90;99.90;;;;;;7394683;19;20015;-80
2023/03/09 05:16:52;;;;;;;31.63;3.63;;;12.90;99.90;;;;;;7394496;19;20010;-80
2023/03/09 05:22:17;;;;;;;22.67;3.50;;;13.10;99.90;;;;;;7391251;19;20058;-80
2023/03/09 05:29:06;;;;;;;;;;;;;;;;;;;;;
2023/03/09 05:32:10;;;;;;;29.90;2.90;;;12.70;99.90;;;;;;7412399;19;20025;-81
2023/03/09 05:35:43;;;;;;;;;;;;;;;;;;;;;
2023/03/09 05:55:32;;;;;;;33.67;3.95;;;12.90;99.90;;;;;;7420207;19;20320;-80
2023/03/09 05:58:25;;;;;;;26.83;3.40;;;13.00;99.90;;;;;;7420409;19;20026;-82
2023/03/09 06:05:01;;;;;;;;;;;;;;;;;;;;;
2023/03/09 06:07:55;;;;;;;;;;;;;;;;;;;;;
2023/03/09 07:01:58;;;;;;;;;;;;;;;;;;;;;
2023/03/09 07:04:37;;;;;;;35.72;4.47;;;13.20;99.90;;;;;;7342400;19;19998;-81
2023/03/09 07:07:31;;;;;;;;;;;;;;;;;;;;;
2023/03/09 07:10:47;;;;;;;;;;;;;;;;;;;;;
2023/03/09 07:13:49;;;;;;;45.30;4.47;;;13.10;99.90;;;;;;7443710;19;20051;-82
2023/03/09 07:19:51;;;;;;;;;;;;;;;;;;;;;
2023/03/09 07:26:11;;;;;;;32.43;4.83;;;12.90;99.90;;;;;;7418925;19;20013;-81
2023/03/09 07:39:14;;;;;;;36.35;4.60;;;13.30;99.90;;;;;;7413829;19;20281;-80
2023/03/09 07:41:48;;;;;;;50.28;5.45;;;13.30;99.90;;;;;;7437083;19;20296;-80
2023/03/09 07:47:32;;;;;;;41.80;5.03;;;13.20;99.90;;;;;;7393956;19;20036;-82
2023/03/09 07:50:28;;;;;;;41.83;5.32;;;13.00;99.90;;;;;;7437716;19;20014;-81
2023/03/09 08:11:33;;;;;;;47.75;5.57;;;13.50;99.90;;;;;;7368875;19;20622;-80
2023/03/09 08:21:37;;;;;;;42.28;5.00;;;13.50;99.90;;;;;;7390544;19;20014;-81
2023/03/09 08:39:33;;;;;;;41.05;6.00;;;13.70;99.90;;;;;;7362970;19;20273;-81
2023/03/09 08:42:11;;;;;;;31.08;4.68;;;13.40;99.90;;;;;;7414196;19;20039;-81
2023/03/09 08:45:25;;;;;;;43.63;5.60;;;13.50;99.90;;;;;;7389555;19;20011;-80
2023/03/09 08:47:54;;;;;;;40.85;5.72;;;13.60;99.90;;;;;;7388435;19;20046;-80
2023/03/09 08:50:44;;;;;;;40.22;4.53;;;13.50;99.90;;;;;;7390660;19;20012;-80
2023/03/09 08:53:13;;;;;;;45.20;5.40;;;13.80;99.90;;;;;;7387683;19;20006;-80
2023/03/09 08:59:02;;;;;;;49.20;5.90;;;14.00;99.90;;;;;;7389934;19;20412;-80
2023/03/09 09:01:34;;;;;;;50.28;4.93;;;13.90;99.90;;;;;;7389909;19;20024;-80
2023/03/09 09:04:04;;;;;;;60.55;6.05;;;14.00;99.90;;;;;;7393556;19;20035;-80
2023/03/09 09:06:33;;;;;;;48.58;6.25;;;14.10;99.70;;;;;;7387494;19;20011;-79
2023/03/09 09:09:02;;;;;;;53.38;6.05;;;13.80;99.80;;;;;;7408274;19;20038;-80
2023/03/09 09:15:44;;;;;;;;;;;;;;;;;;;;;
2023/03/09 09:18:15;;;;;;;45.33;5.70;;;14.10;99.80;;;;;;7385339;19;20013;-80
2023/03/09 09:53:00;;;;;;;42.25;5.90;;;14.80;98.00;;;;;;7416370;19;20010;-80
2023/03/09 09:55:42;;;;;;;48.38;6.68;;;14.60;98.30;;;;;;7416471;19;20074;-80
2023/03/09 09:58:27;;;;;;;40.67;5.30;;;14.50;98.20;;;;;;7416086;19;20009;-79
2023/03/09 10:01:07;;;;;;;50.83;6.43;;;14.50;98.00;;;;;;7414885;19;20014;-80
2023/03/09 10:03:40;;;;;;;46.33;5.43;;;14.30;98.10;;;;;;7439773;19;20025;-80
2023/03/09 10:06:16;;;;;;;38.13;5.63;;;14.40;98.40;;;;;;7440617;19;20003;-80
2023/03/09 10:08:48;;;;;;;44.95;6.00;;;14.60;98.30;;;;;;7421900;19;20460;-79
2023/03/09 10:11:25;;;;;;;53.35;6.72;;;14.80;97.70;;;;;;7425138;19;20042;-78
2023/03/09 10:39:24;;;;;;;42.07;5.30;;;14.70;97.30;;;;;;7268871;19;3089508;-80
2023/03/09 10:42:01;;;;;;;39.92;4.75;;;14.80;96.10;;;;;;7445747;19;20247;-81
2023/03/09 12:06:19;;;;;;;;;;;;;;;;;;;;;
2023/03/09 12:09:09;;;;;;;;;;;;;;;;;;;;;
2023/03/09 12:14:49;;;;;;;42.50;5.53;;;16.00;92.80;;;;;;7422760;19;20007;-81
2023/03/09 12:17:44;;;;;;;38.22;5.35;;;16.20;92.90;;;;;;7423633;19;20006;-81
2023/03/09 12:20:38;;;;;;;35.42;5.10;;;16.20;92.50;;;;;;7422773;19;20076;-81
2023/03/09 12:23:42;;;;;;;33.58;5.78;;;16.10;92.90;;;;;;7422004;19;20002;-81
2023/03/09 12:27:08;;;;;;;38.80;5.68;;;15.80;93.10;;;;;;7442164;19;20070;-81
2023/03/09 12:29:46;;;;;;;37.67;5.32;;;15.70;93.30;;;;;;7427454;19;20007;-81
2023/03/09 12:32:45;;;;;;;42.85;4.82;;;15.90;93.30;;;;;;7422918;19;20449;-80
2023/03/09 12:35:51;;;;;;;45.05;5.25;;;15.80;93.50;;;;;;7417765;19;20019;-78
2023/03/09 12:38:26;;;;;;;42.92;5.03;;;16.00;93.30;;;;;;7420027;19;20012;-80
2023/03/09 12:40:55;;;;;;;33.15;4.78;;;16.00;93.60;;;;;;7416941;19;20028;-79
2023/03/09 12:43:50;;;;;;;35.78;5.43;;;16.10;93.40;;;;;;7416488;19;20028;-80
2023/03/09 12:46:51;;;;;;;38.92;5.43;;;16.30;92.90;;;;;;7414141;19;20007;-79
2023/03/09 12:52:47;;;;;;;30.52;5.50;;;16.40;93.00;;;;;;7424867;19;20002;-80
2023/03/09 12:55:20;;;;;;;40.92;5.28;;;16.40;93.10;;;;;;7416363;19;20029;-80
2023/03/09 12:57:55;;;;;;;38.72;5.15;;;16.50;92.80;;;;;;7414505;19;20345;-80
2023/03/09 13:01:03;;;;;;;28.17;5.55;;;16.40;92.80;;;;;;7417247;19;20007;-79
2023/03/09 13:03:38;;;;;;;34.42;4.53;;;16.40;92.90;;;;;;7431681;19;20014;-80
2023/03/09 13:06:10;;;;;;;33.33;4.88;;;16.40;93.20;;;;;;7419546;19;20250;-79
2023/03/09 13:08:41;;;;;;;37.55;4.63;;;16.40;92.70;;;;;;7391374;19;19999;-79
2023/03/09 13:11:40;;;;;;;38.17;4.85;;;16.30;92.90;;;;;;7388940;19;20006;-79
2023/03/09 13:14:15;;;;;;;34.30;4.10;;;16.20;93.20;;;;;;7392055;19;20042;-80
2023/03/09 13:17:01;;;;;;;42.17;5.85;;;16.40;93.20;;;;;;7393268;19;20003;-79
2023/03/09 13:19:48;;;;;;;32.08;3.88;;;16.40;93.20;;;;;;7389529;19;20219;-79
2023/03/09 13:22:32;;;;;;;28.83;3.92;;;16.40;93.20;;;;;;7386333;19;20251;-80
2023/03/09 13:28:47;;;;;;;27.33;3.93;;;15.90;93.50;;;;;;7414554;19;19983;-83
2023/03/09 13:31:29;;;;;;;22.58;4.40;;;15.80;93.90;;;;;;7391442;19;20086;-81
2023/03/09 13:34:26;;;;;;;24.30;3.80;;;15.60;94.60;;;;;;7389925;19;20017;-82
2023/03/09 13:37:06;;;;;;;26.05;4.03;;;15.90;94.50;;;;;;7389164;19;20019;-80
2023/03/09 14:10:22;;;;;;;21.05;2.60;;;15.80;95.60;;;;;;6444816;19;3102884;-80
2023/03/09 14:12:56;;;;;;;22.05;3.95;;;15.90;96.00;;;;;;7421765;19;20006;-80
2023/03/09 14:15:29;;;;;;;25.35;3.67;;;15.70;96.10;;;;;;7423707;19;20030;-80
2023/03/09 14:18:18;;;;;;;;;;;;;;;;;;;;;
2023/03/09 14:24:13;;;;;;;18.50;3.40;;;16.00;96.00;;;;;;7433695;19;20014;-78
2023/03/09 14:26:48;;;;;;;17.88;3.25;;;16.20;95.80;;;;;;7425395;19;20007;-79
2023/03/09 14:29:25;;;;;;;28.83;4.20;;;16.30;96.20;;;;;;7420862;19;20002;-79
2023/03/09 14:32:22;;;;;;;17.92;3.35;;;16.40;96.10;;;;;;7420571;19;20023;-78
2023/03/09 14:35:30;;;;;;;25.75;4.50;;;16.50;96.30;;;;;;7437267;19;20002;-81
2023/03/09 14:37:59;;;;;;;20.77;3.67;;;16.30;96.50;;;;;;7415182;19;19999;-79
2023/03/09 14:40:31;;;;;;;24.27;4.43;;;16.30;96.50;;;;;;7416580;19;20028;-79
2023/03/09 14:43:32;;;;;;;16.50;3.55;;;16.10;96.30;;;;;;7413873;19;20032;-78
2023/03/09 14:49:33;;;;;;;22.17;3.95;;;16.20;96.60;;;;;;7415648;19;20010;-81
2023/03/09 14:55:25;;;;;;;15.10;3.05;;;16.10;96.50;;;;;;7416958;19;20003;-80
2023/03/09 14:57:54;;;;;;;11.75;2.35;;;16.30;96.60;;;;;;7389548;19;20013;-78
2023/03/09 15:12:28;;;;;;;;;;;16.50;95.60;;;;;;7387508;19;20011;-79
2023/03/09 15:21:29;;;;;;;;;;;16.70;96.00;;;;;;7424469;19;19927;-81
2023/03/09 15:34:06;;;;;;;10.85;2.72;;;16.40;96.10;;;;;;7390480;19;20018;-80
2023/03/09 15:36:52;;;;;;;14.23;4.25;;;16.50;96.10;;;;;;7386416;19;20041;-80
2023/03/09 15:45:44;;;;;;;15.73;3.85;;;16.10;96.80;;;;;;7381135;19;20534;-79
2023/03/09 15:48:14;;;;;;;12.45;3.13;;;16.10;96.70;;;;;;7405292;19;20033;-80
2023/03/09 15:53:58;;;;;;;10.43;2.45;;;16.50;96.40;;;;;;7388324;19;20040;-80
2023/03/09 15:56:42;;;;;;;14.02;2.97;;;16.50;95.80;;;;;;7388962;19;20006;-80
2023/03/09 15:59:36;;;;;;;15.15;2.92;;;16.70;95.40;;;;;;7385055;19;20031;-80
2023/03/09 16:02:05;;;;;;;19.42;3.03;;;16.90;95.30;;;;;;7384719;19;20098;-78
2023/03/09 16:07:40;;;;;;;13.63;2.70;;;16.90;94.90;;;;;;7383534;19;20003;-80
2023/03/09 16:10:35;;;;;;;;;;;;;;;;;;;;;
2023/03/09 16:38:25;;;;;;;26.23;4.60;;;16.50;95.80;;;;;;687517;19;3038446;-80
2023/03/09 16:40:59;;;;;;;15.88;3.28;;;16.00;96.80;;;;;;7419939;19;20010;-80
2023/03/09 16:50:01;;;;;;;18.93;3.27;;;16.20;96.80;;;;;;7422521;19;20283;-80
2023/03/09 16:52:31;;;;;;;20.20;3.83;;;16.30;96.90;;;;;;7420376;19;20017;-78
2023/03/09 17:19:12;;;;;;;20.70;3.35;;;15.80;98.70;;;;;;7422317;19;20341;-80
2023/03/09 17:22:10;;;;;;;;;;;15.20;99.90;;;;;;7421821;19;20010;-82
2023/03/09 17:28:11;;;;;;;;;;;15.20;99.90;;;;;;7313641;19;2004293;-80
2023/03/09 17:30:41;;;;;;;11.48;2.10;;;15.00;99.90;;;;;;7418855;19;19915;-78
2023/03/09 17:33:10;;;;;;;8.63;2.00;;;14.80;99.90;;;;;;7444899;19;20006;-78
2023/03/09 17:35:43;;;;;;;7.68;1.58;;;15.00;99.90;;;;;;7430113;19;20007;-79
2023/03/09 17:38:14;;;;;;;7.72;1.58;;;14.90;99.90;;;;;;7432387;19;20014;-80
2023/03/09 17:40:45;;;;;;;6.90;1.58;;;14.80;99.90;;;;;;7426262;19;20262;-79
2023/03/09 17:43:14;;;;;;;5.57;1.53;;;14.70;99.90;;;;;;7423283;19;20003;-80
2023/03/09 17:45:44;;;;;;;6.85;1.80;;;15.00;99.90;;;;;;7419367;19;20030;-80
2023/03/09 17:48:38;;;;;;;9.48;1.85;;;15.10;99.90;;;;;;7444579;19;20011;-82
2023/03/09 17:51:25;;;;;;;11.35;2.63;;;14.90;99.90;;;;;;7420726;19;20027;-81
2023/03/09 17:54:04;;;;;;;7.85;1.70;;;14.80;99.90;;;;;;7420012;19;20013;-81
2023/03/09 17:56:33;;;;;;;8.77;1.92;;;14.90;99.90;;;;;;7418843;19;20002;-81
2023/03/09 17:59:05;;;;;;;5.93;1.85;;;14.90;99.90;;;;;;7419228;19;20228;-80
2023/03/09 18:01:34;;;;;;;12.10;2.00;;;15.00;99.90;;;;;;7416213;19;20002;-79
2023/03/09 18:07:24;;;;;;;6.88;2.10;;;15.00;99.90;;;;;;7415517;19;20369;-79
2023/03/09 18:09:59;;;;;;;8.10;2.13;;;15.00;99.90;;;;;;7416102;19;20007;-79
2023/03/09 18:32:15;;;;;;;16.13;3.33;;;15.00;99.90;;;;;;7391407;19;20075;-79
2023/03/09 18:37:57;;;;;;;17.05;3.15;;;15.20;99.90;;;;;;7391703;19;20365;-80
2023/03/09 18:40:29;;;;;;;11.18;3.55;;;15.30;99.90;;;;;;7391898;19;20010;-80
2023/03/09 18:43:01;;;;;;;13.68;3.28;;;15.40;99.90;;;;;;7392699;19;19999;-80
2023/03/09 18:59:13;;;;;;;15.65;3.00;;;14.80;99.90;;;;;;7410299;19;20018;-80
2023/03/09 19:01:42;;;;;;;12.07;2.63;;;14.80;99.90;;;;;;7387709;19;20003;-80
2023/03/09 19:04:16;;;;;;;9.95;2.83;;;14.90;99.90;;;;;;7387862;19;20386;-79
2023/03/09 19:10:03;;;;;;;14.30;2.65;;;15.10;99.90;;;;;;7387778;19;20007;-79
2023/03/09 19:12:38;;;;;;;12.23;2.63;;;15.10;99.90;;;;;;7388850;19;20036;-79
2023/03/09 19:18:35;;;;;;;14.35;2.50;;;14.90;99.90;;;;;;7390826;19;20055;-80
2023/03/09 19:27:11;;;;;;;26.87;3.57;;;14.60;99.90;;;;;;7412107;19;19982;-80
2023/03/09 19:56:44;;;;;;;12.90;3.33;;;14.70;99.90;;;;;;1410210;19;3016968;-80
2023/03/09 19:59:43;;;;;;;13.88;2.63;;;14.80;99.90;;;;;;7422650;19;20458;-80
2023/03/09 20:02:26;;;;;;;22.50;3.33;;;14.70;99.90;;;;;;7424929;19;20075;-80
2023/03/09 20:05:23;;;;;;;;;;;;;;;;;;;;;
2023/03/09 20:32:16;;;;;;;;;;;;;;;;;;;;;
2023/03/09 23:35:17;;;;;;;47.08;5.78;;;14.00;99.90;;;;;;7383378;19;20904;-79
2023/03/09 23:37:52;;;;;;;48.50;5.93;;;13.90;99.90;;;;;;7411282;19;20011;-79
2023/03/09 23:40:22;;;;;;;26.67;4.65;;;13.70;99.90;;;;;;7388144;19;20009;-78
2023/03/09 23:42:54;;;;;;;46.78;5.38;;;13.60;99.90;;;;;;7385345;19;20007;-79
2023/03/09 23:45:34;;;;;;;30.90;5.10;;;13.70;99.90;;;;;;7384958;19;20332;-79
2023/03/09 23:48:10;;;;;;;42.75;6.25;;;13.80;99.90;;;;;;7386730;19;20018;-79
2023/03/09 23:50:51;;;;;;;37.08;5.18;;;14.00;99.90;;;;;;7407476;19;20014;-79
2023/03/09 23:53:32;;;;;;;43.97;5.63;;;14.10;99.90;;;;;;7385316;19;20074;-80
2023/03/09 23:56:13;;;;;;;34.33;5.53;;;13.90;99.90;;;;;;7389781;19;20058;-79
2023/03/09 23:58:47;;;;;;;43.30;5.82;;;13.80;99.90;;;;;;7387979;19;19999;-79
